Time;durP1;ratioP1;P1;durP2;ratioP2;P2;SDS_P1;SDS_P2;PMS_P1;PMS_P2;Temp;Humidity;BMP_temperature;BMP_pressure;BME280_temperature;BME280_humidity;BME280_pressure;Samples;Min_cycle;Max_cycle;Signal;HPM_P1;HPM_P2
2022/11/09 00:03:42;;;;;;;;;;;;;;;11;94.62402;100432.4;;;;-80
2022/11/09 00:13:38;;;;;;;;;;;;;;;11.12;95.36816;100424.1;;;;-80
2022/11/09 00:17:13;;;;;;;;;;;;;;;11.06;95.81738;100422.1;;;;-82
2022/11/09 00:27:09;;;;;;;;;;;;;;;11.09;95.85449;100420.2;;;;-81
2022/11/09 00:32:14;;;;;;;;;;;;;;;11.1;96.1123;100413.8;;;;-81
2022/11/09 00:33:10;;;;;;;5.1;1.3;;;;;;;;;;;;;-80
2022/11/09 00:37:09;;;;;;;;;;;;;;;11.06;95.79297;100410.3;;;;-81
2022/11/09 00:42:12;;;;;;;;;;;;;;;11.01;95.37598;100414;;;;-81
2022/11/09 00:47:19;;;;;;;;;;;;;;;10.94;94.96484;100414.7;;;;-81
2022/11/09 00:52:11;;;;;;;;;;;;;;;10.88;94.54297;100412.4;;;;-81
2022/11/09 00:57:09;;;;;;;;;;;;;;;10.81;94.7041;100405;;;;-82
2022/11/09 01:02:20;;;;;;;;;;;;;;;10.77;94.70703;100403;;;;-80
2022/11/09 01:03:19;;;;;;;4.3;1.4;;;;;;;;;;;;;-81
2022/11/09 01:07:12;;;;;;;;;;;;;;;10.75;95.44141;100392.4;;;;-81
2022/11/09 01:12:14;;;;;;;;;;;;;;;10.75;95.43066;100396.3;;;;-82
2022/11/09 01:17:11;;;;;;;;;;;;;;;10.74;95.7373;100397.6;;;;-81
2022/11/09 01:22:14;;;;;;;;;;;;;;;10.75;95.94824;100398.8;;;;-81
2022/11/09 01:27:16;;;;;;;;;;;;;;;10.78;96.0752;100406;;;;-80
2022/11/09 01:32:09;;;;;;;;;;;;;;;10.77;96.05176;100409.1;;;;-80
2022/11/09 01:33:09;;;;;;;6.3;1.4;;;;;;;;;;;;;-80
2022/11/09 01:37:09;;;;;;;;;;;;;;;10.78;96.11914;100397.5;;;;-79
2022/11/09 01:42:09;;;;;;;;;;;;;;;10.75;95.91504;100407.1;;;;-80
2022/11/09 01:47:10;;;;;;;;;;;;;;;10.74;95.86914;100399.1;;;;-80
2022/11/09 01:52:14;;;;;;;;;;;;;;;10.75;95.75;100404.9;;;;-80
2022/11/09 01:57:13;;;;;;;;;;;;;;;10.74;95.57129;100402.2;;;;-81
2022/11/09 02:02:09;;;;;;;;;;;;;;;10.76;95.6748;100414.6;;;;-79
2022/11/09 02:03:09;;;;;;;6.7;1.4;;;;;;;;;;;;;-79
2022/11/09 02:07:09;;;;;;;;;;;;;;;10.77;95.46777;100409.3;;;;-79
2022/11/09 02:12:12;;;;;;;;;;;;;;;10.79;95.34961;100417.7;;;;-78
2022/11/09 02:17:09;;;;;;;;;;;;;;;10.78;95.19434;100417.7;;;;-80
2022/11/09 02:22:12;;;;;;;;;;;;;;;10.79;95.19629;100417.9;;;;-79
2022/11/09 02:27:09;;;;;;;;;;;;;;;10.8;95.08789;100428.4;;;;-78
2022/11/09 02:32:11;;;;;;;;;;;;;;;10.81;95.08984;100413;;;;-79
2022/11/09 02:33:08;;;;;;;7.6;1.5;;;;;;;;;;;;;-79
2022/11/09 02:37:08;;;;;;;;;;;;;;;10.84;94.97461;100416.7;;;;-79
2022/11/09 02:42:11;;;;;;;;;;;;;;;10.86;94.85645;100412.9;;;;-79
2022/11/09 02:47:11;;;;;;;;;;;;;;;10.86;94.80371;100402.1;;;;-78
2022/11/09 02:52:11;;;;;;;;;;;;;;;10.87;94.83887;100396.7;;;;-78
2022/11/09 02:57:09;;;;;;;;;;;;;;;10.82;94.72949;100384.9;;;;-79
2022/11/09 03:02:08;;;;;;;;;;;;;;;10.79;94.83203;100380.6;;;;-78
2022/11/09 03:03:09;;;;;;;8.8;1.7;;;;;;;;;;;;;-78
2022/11/09 03:07:10;;;;;;;;;;;;;;;10.76;94.84863;100374.6;;;;-79
2022/11/09 03:17:08;;;;;;;;;;;;;;;10.74;94.95215;100397.8;;;;-79
2022/11/09 03:22:09;;;;;;;;;;;;;;;10.74;94.91992;100406;;;;-78
2022/11/09 03:27:09;;;;;;;;;;;;;;;10.76;94.98047;100414.5;;;;-79
2022/11/09 03:32:12;;;;;;;;;;;;;;;10.74;94.89941;100423.7;;;;-79
2022/11/09 03:33:13;;;;;;;6.9;1.5;;;;;;;;;;;;;-79
2022/11/09 03:37:09;;;;;;;;;;;;;;;10.74;94.9873;100430.1;;;;-79
2022/11/09 03:42:08;;;;;;;;;;;;;;;10.72;94.92871;100437.3;;;;-80
2022/11/09 03:47:08;;;;;;;;;;;;;;;10.72;94.88477;100438.8;;;;-77
2022/11/09 03:52:10;;;;;;;;;;;;;;;10.69;94.82129;100458.4;;;;-77
2022/11/09 03:57:09;;;;;;;;;;;;;;;10.68;94.78613;100462.3;;;;-77
2022/11/09 04:02:10;;;;;;;;;;;;;;;10.65;94.75879;100464.7;;;;-79
2022/11/09 04:03:10;;;;;;;10.6;1.7;;;;;;;;;;;;;-79
2022/11/09 04:07:09;;;;;;;;;;;;;;;10.66;94.70313;100475.4;;;;-81
2022/11/09 04:12:10;;;;;;;;;;;;;;;10.66;94.83594;100481;;;;-77
2022/11/09 04:17:12;;;;;;;;;;;;;;;10.69;94.86523;100473.3;;;;-79
2022/11/09 04:22:09;;;;;;;;;;;;;;;10.72;94.84961;100458;;;;-78
2022/11/09 04:27:09;;;;;;;;;;;;;;;10.76;95.04688;100461.5;;;;-77
2022/11/09 04:32:09;;;;;;;;;;;;;;;10.84;94.9873;100471.8;;;;-77
2022/11/09 04:33:18;;;;;;;6.2;1.5;;;;;;;;;;;;;-78
2022/11/09 04:37:11;;;;;;;;;;;;;;;10.92;94.75;100481.9;;;;-78
2022/11/09 04:42:09;;;;;;;;;;;;;;;10.93;95.03809;100478.7;;;;-79
2022/11/09 04:52:41;;;;;;;;;;;;;;;10.92;95.30273;100481.4;;;;-80
2022/11/09 04:57:10;;;;;;;;;;;;;;;10.86;94.98926;100496.2;;;;-80
2022/11/09 05:02:14;;;;;;;;;;;;;;;10.75;94.52637;100500.4;;;;-79
2022/11/09 05:03:12;;;;;;;6.5;1.2;;;;;;;;;;;;;-79
2022/11/09 05:07:09;;;;;;;;;;;;;;;10.68;94.14746;100501;;;;-78
2022/11/09 05:12:09;;;;;;;;;;;;;;;10.61;94.36328;100506.8;;;;-79
2022/11/09 05:17:08;;;;;;;;;;;;;;;10.56;94.60645;100503.8;;;;-79
2022/11/09 05:27:19;;;;;;;;;;;;;;;10.47;94.62207;100497.2;;;;-79
2022/11/09 05:32:18;;;;;;;;;;;;;;;10.46;94.90234;100498;;;;-78
2022/11/09 05:33:17;;;;;;;7.7;1.6;;;;;;;;;;;;;-79
2022/11/09 05:37:12;;;;;;;;;;;;;;;10.44;95;100502.4;;;;-79
2022/11/09 05:42:11;;;;;;;;;;;;;;;10.41;94.82617;100504.6;;;;-80
2022/11/09 05:47:09;;;;;;;;;;;;;;;10.42;95.09277;100506.8;;;;-79
2022/11/09 05:52:11;;;;;;;;;;;;;;;10.38;94.84277;100508.3;;;;-78
2022/11/09 05:57:10;;;;;;;;;;;;;;;10.35;94.69336;100514.3;;;;-78
2022/11/09 06:02:08;;;;;;;;;;;;;;;10.31;94.93945;100522.5;;;;-78
2022/11/09 06:03:22;;;;;;;7.3;1.5;;;;;;;;;;;;;-79
2022/11/09 06:07:11;;;;;;;;;;;;;;;10.31;95.04688;100512.2;;;;-79
2022/11/09 06:12:09;;;;;;;;;;;;;;;10.3;95.10059;100518.3;;;;-77
2022/11/09 06:17:09;;;;;;;;;;;;;;;10.27;95.03906;100517.1;;;;-78
2022/11/09 06:22:08;;;;;;;;;;;;;;;10.26;95.14746;100524.5;;;;-78
2022/11/09 06:27:08;;;;;;;;;;;;;;;10.22;95.10645;100532.6;;;;-79
2022/11/09 06:32:09;;;;;;;;;;;;;;;10.2;95.11133;100537.7;;;;-79
2022/11/09 06:33:18;;;;;;;6.7;1.6;;;;;;;;;;;;;-77
2022/11/09 06:37:10;;;;;;;;;;;;;;;10.17;95.09473;100536.5;;;;-79
2022/11/09 06:42:11;;;;;;;;;;;;;;;10.15;95.31934;100541.6;;;;-78
2022/11/09 06:47:11;;;;;;;;;;;;;;;10.11;95.35547;100544.1;;;;-77
2022/11/09 06:52:11;;;;;;;;;;;;;;;10.08;94.93164;100551.5;;;;-79
2022/11/09 06:57:09;;;;;;;;;;;;;;;10.06;95.10352;100554.8;;;;-79
2022/11/09 07:02:11;;;;;;;;;;;;;;;10.09;95.26367;100558.1;;;;-77
2022/11/09 07:03:20;;;;;;;7.8;1.6;;;;;;;;;;;;;-78
2022/11/09 07:07:09;;;;;;;;;;;;;;;10.06;95.28027;100567.1;;;;-78
2022/11/09 07:12:09;;;;;;;;;;;;;;;10.08;95.40527;100567.4;;;;-78
2022/11/09 07:17:09;;;;;;;;;;;;;;;10.1;95.65137;100570.1;;;;-78
2022/11/09 07:22:10;;;;;;;;;;;;;;;10.11;95.52051;100572.5;;;;-79
2022/11/09 07:27:17;;;;;;;;;;;;;;;10.1;95.39941;100574.5;;;;-77
2022/11/09 07:32:11;;;;;;;;;;;;;;;10.12;95.71191;100574.6;;;;-78
2022/11/09 07:33:23;;;;;;;8.4;1.8;;;;;;;;;;;;;-79
2022/11/09 07:37:12;;;;;;;;;;;;;;;10.15;95.64063;100575.2;;;;-79
2022/11/09 07:42:08;;;;;;;;;;;;;;;10.13;95.20801;100580.3;;;;-77
2022/11/09 07:47:08;;;;;;;;;;;;;;;10.16;95.5;100581.4;;;;-81
2022/11/09 07:52:09;;;;;;;;;;;;;;;10.16;95.44434;100591.9;;;;-78
2022/11/09 07:57:09;;;;;;;;;;;;;;;10.2;95.74121;100599.3;;;;-79
2022/11/09 08:02:16;;;;;;;;;;;;;;;10.24;95.71387;100600.3;;;;-78
2022/11/09 08:03:20;;;;;;;7.9;2;;;;;;;;;;;;;-79
2022/11/09 08:07:09;;;;;;;;;;;;;;;10.29;95.64844;100602.6;;;;-78
2022/11/09 08:12:15;;;;;;;;;;;;;;;10.34;95.6582;100603.1;;;;-77
2022/11/09 08:17:08;;;;;;;;;;;;;;;10.38;95.62402;100603.9;;;;-79
2022/11/09 08:22:09;;;;;;;;;;;;;;;10.46;95.56348;100605.1;;;;-78
2022/11/09 08:27:14;;;;;;;;;;;;;;;10.55;95.49512;100613.3;;;;-77
2022/11/09 08:32:08;;;;;;;;;;;;;;;10.6;95.31934;100618;;;;-77
2022/11/09 08:33:19;;;;;;;14.4;2.2;;;;;;;;;;;;;-78
2022/11/09 08:37:09;;;;;;;;;;;;;;;10.67;95.51172;100614.9;;;;-77
2022/11/09 08:42:09;;;;;;;;;;;;;;;10.78;95.31543;100607.4;;;;-77
2022/11/09 08:47:09;;;;;;;;;;;;;;;10.85;94.94531;100613.1;;;;-78
2022/11/09 08:52:11;;;;;;;;;;;;;;;10.95;94.71289;100612.2;;;;-79
2022/11/09 08:57:10;;;;;;;;;;;;;;;11.02;94.47363;100613.8;;;;-77
2022/11/09 09:02:09;;;;;;;;;;;;;;;11.12;94.11035;100612.6;;;;-78
2022/11/09 09:03:20;;;;;;;11.2;2.1;;;;;;;;;;;;;-79
2022/11/09 09:07:09;;;;;;;;;;;;;;;11.34;93.68066;100616.7;;;;-77
2022/11/09 09:12:12;;;;;;;;;;;;;;;11.43;93.65625;100620.4;;;;-78
2022/11/09 09:17:13;;;;;;;;;;;;;;;11.6;93.20703;100629.6;;;;-78
2022/11/09 09:22:09;;;;;;;;;;;;;;;11.65;92.65527;100630.5;;;;-77
2022/11/09 09:27:10;;;;;;;;;;;;;;;11.74;92.3291;100637.2;;;;-78
2022/11/09 09:32:09;;;;;;;;;;;;;;;11.91;92.03223;100639.3;;;;-79
2022/11/09 09:33:41;;;;;;;7.9;2.8;;;;;;;;;;;;;-79
2022/11/09 09:37:14;;;;;;;;;;;;;;;11.92;91.62695;100654;;;;-77
2022/11/09 09:42:23;;;;;;;;;;;;;;;11.92;91.37207;100656.5;;;;-78
2022/11/09 09:47:14;;;;;;;;;;;;;;;11.9;91.40137;100652.4;;;;-77
2022/11/09 09:52:15;;;;;;;;;;;;;;;11.93;91.45117;100655;;;;-77
2022/11/09 09:57:20;;;;;;;;;;;;;;;12.02;91.09473;100653.8;;;;-78
2022/11/09 10:02:18;;;;;;;;;;;;;;;12.05;90.98047;100662.8;;;;-78
2022/11/09 10:03:23;;;;;;;10.3;2.9;;;;;;;;;;;;;-80
2022/11/09 10:07:14;;;;;;;;;;;;;;;12.08;90.49902;100662.9;;;;-77
2022/11/09 10:12:21;;;;;;;;;;;;;;;12.08;90.3418;100660.6;;;;-78
2022/11/09 10:17:14;;;;;;;;;;;;;;;12.06;90.13867;100661.1;;;;-78
2022/11/09 10:22:15;;;;;;;;;;;;;;;11.97;90.78613;100668.6;;;;-77
2022/11/09 10:27:26;;;;;;;;;;;;;;;11.94;91.05664;100682.2;;;;-79
2022/11/09 10:32:13;;;;;;;;;;;;;;;11.87;91.35156;100664.7;;;;-78
2022/11/09 10:33:27;;;;;;;10.8;3.4;;;;;;;;;;;;;-78
2022/11/09 10:37:21;;;;;;;;;;;;;;;11.84;91.35742;100667.5;;;;-77
2022/11/09 10:42:09;;;;;;;;;;;;;;;11.87;91.50684;100664.2;;;;-78
2022/11/09 10:47:12;;;;;;;;;;;;;;;11.88;91.40723;100660.1;;;;-77
2022/11/09 10:52:24;;;;;;;;;;;;;;;11.94;90.83594;100660.2;;;;-79
2022/11/09 10:57:18;;;;;;;;;;;;;;;12.05;90.62598;100647.2;;;;-76
2022/11/09 11:02:23;;;;;;;;;;;;;;;12.1;89.79395;100654.8;;;;-76
2022/11/09 11:03:29;;;;;;;9.3;2.3;;;;;;;;;;;;;-77
2022/11/09 11:07:24;;;;;;;;;;;;;;;12.12;89.79785;100662.8;;;;-77
2022/11/09 11:12:16;;;;;;;;;;;;;;;12.18;89.53418;100655;;;;-77
2022/11/09 11:17:22;;;;;;;;;;;;;;;12.35;88.9707;100650.8;;;;-78
2022/11/09 11:22:31;;;;;;;;;;;;;;;12.31;88.16309;100652.7;;;;-78
2022/11/09 11:27:14;;;;;;;;;;;;;;;12.3;88.62695;100662.8;;;;-78
2022/11/09 11:32:11;;;;;;;;;;;;;;;12.27;88.73242;100667.9;;;;-76
2022/11/09 11:33:28;;;;;;;6.8;1.8;;;;;;;;;;;;;-78
2022/11/09 11:37:18;;;;;;;;;;;;;;;12.2;88.70703;100674.4;;;;-78
2022/11/09 11:42:20;;;;;;;;;;;;;;;12.16;88.73242;100679.2;;;;-78
2022/11/09 11:47:13;;;;;;;;;;;;;;;12.13;88.68066;100666.8;;;;-78
2022/11/09 11:52:16;;;;;;;;;;;;;;;12.11;88.46875;100668.9;;;;-77
2022/11/09 11:57:18;;;;;;;;;;;;;;;12.1;88.40918;100668.5;;;;-78
2022/11/09 12:02:20;;;;;;;;;;;;;;;12.13;88.31543;100672.8;;;;-78
2022/11/09 12:03:39;;;;;;;5.8;1.4;;;;;;;;;;;;;-78
2022/11/09 12:07:20;;;;;;;;;;;;;;;12.16;88.15625;100667.6;;;;-77
2022/11/09 12:12:16;;;;;;;;;;;;;;;12.24;87.53027;100676.3;;;;-77
2022/11/09 12:17:16;;;;;;;;;;;;;;;12.38;87.04688;100680.5;;;;-78
2022/11/09 12:22:11;;;;;;;;;;;;;;;12.56;86.67285;100680.3;;;;-78
2022/11/09 12:27:19;;;;;;;;;;;;;;;12.54;85.6377;100674.6;;;;-78
2022/11/09 12:32:16;;;;;;;;;;;;;;;12.55;85.90527;100684.3;;;;-79
2022/11/09 12:33:42;;;;;;;6.5;1.1;;;;;;;;;;;;;-78
2022/11/09 12:37:14;;;;;;;;;;;;;;;12.54;85.9707;100689.6;;;;-78
2022/11/09 12:42:14;;;;;;;;;;;;;;;12.54;86.13477;100692.4;;;;-77
2022/11/09 12:47:14;;;;;;;;;;;;;;;12.54;85.95898;100705.8;;;;-77
2022/11/09 12:52:09;;;;;;;;;;;;;;;12.62;85.80664;100694.9;;;;-77
2022/11/09 12:57:13;;;;;;;;;;;;;;;12.51;85.53027;100711.4;;;;-79
2022/11/09 13:02:09;;;;;;;;;;;;;;;12.41;85.65332;100731;;;;-78
2022/11/09 13:03:32;;;;;;;6;0.9;;;;;;;;;;;;;-79
2022/11/09 13:07:20;;;;;;;;;;;;;;;12.26;86.99121;100733.1;;;;-79
2022/11/09 13:12:19;;;;;;;;;;;;;;;12.15;87.86621;100723.3;;;;-79
2022/11/09 13:17:20;;;;;;;;;;;;;;;12.1;88.53125;100743.4;;;;-80
2022/11/09 13:22:30;;;;;;;;;;;;;;;12.04;88.9502;100760.5;;;;-82
2022/11/09 13:27:27;;;;;;;;;;;;;;;11.96;89.40039;100730.5;;;;-81
2022/11/09 13:32:38;;;;;;;;;;;;;;;11.89;89.90625;100751.5;;;;-82
2022/11/09 13:33:34;;;;;;;4.8;1.3;;;;;;;;;;;;;-81
2022/11/09 14:31:49;;;;;;;;;;;;;;;11.52;93.3457;100831.2;;;;-81
2022/11/09 14:33:38;;;;;;;5.5;0.9;;;;;;;;;;;;;-83
2022/11/09 14:36:40;;;;;;;;;;;;;;;11.47;93.2793;100835;;;;-82
2022/11/09 14:41:39;;;;;;;;;;;;;;;11.45;93.26465;100846.9;;;;-81
2022/11/09 14:47:05;;;;;;;;;;;;;;;11.53;93.32617;100870;;;;-79
2022/11/09 15:11:37;;;;;;;;;;;;;;;11.56;93.99414;100901.1;;;;-83
2022/11/09 15:16:18;;;;;;;;;;;;;;;;;;;;;
2022/11/09 15:19:51;;;;;;;;;;;;;;;;;;;;;
2022/11/09 15:24:36;;;;;;;;;;;;;;;11.42;93.58789;100912.6;;;;-82
2022/11/09 15:27:35;;;;;;;;;;;;;;;11.46;93.46484;100910.2;;;;-79
2022/11/09 15:31:31;;;;;;;;;;;;;;;11.35;93.71777;100919.7;;;;-81
2022/11/09 15:34:03;;;;;;;4;1.1;;;;;;;;;;;;;-81
2022/11/09 15:36:46;;;;;;;;;;;;;;;11.31;93.65332;100925.5;;;;-81
2022/11/09 15:41:26;;;;;;;;;;;;;;;11.3;93.5752;100931.3;;;;-81
2022/11/09 15:46:43;;;;;;;;;;;;;;;11.28;93.48145;100938.4;;;;-81
2022/11/09 15:51:26;;;;;;;;;;;;;;;11.25;93.50684;100953.3;;;;-81
2022/11/09 16:28:00;;;;;;;;;;;;;;;11.05;93.33398;101010.5;;;;-82
2022/11/09 16:33:00;;;;;;;;;;;;;;;11;92.93848;101016.3;;;;-81
2022/11/09 16:33:52;;;;;;;8.4;1.3;;;;;;;;;;;;;-81
2022/11/09 16:42:50;;;;;;;;;;;;;;;10.88;92.82227;101034.9;;;;-81
2022/11/09 16:48:11;;;;;;;;;;;;;;;10.87;92.74316;101037.5;;;;-79
2022/11/09 16:53:15;;;;;;;;;;;;;;;10.86;93.04883;101051;;;;-81
2022/11/09 17:28:18;;;;;;;;;;;;;;;10.76;93.1377;101104.8;;;;-81
2022/11/09 17:33:53;;;;;;;6.1;1.2;;;;;;;;;;;;;31
2022/11/09 17:36:00;;;;;;;;;;;;;;;;;;;;;
2022/11/09 17:40:49;;;;;;;;;;;;;;;10.73;93.12109;101128.8;;;;-79
2022/11/09 17:45:46;;;;;;;;;;;;;;;10.72;92.7666;101134.1;;;;-80
2022/11/09 19:05:10;;;;;;;;;;;;;;;10.38;91.42773;101249.4;;;;-79
2022/11/09 19:09:49;;;;;;;;;;;;;;;10.25;91.85254;101256.7;;;;-80
2022/11/09 19:14:57;;;;;;;;;;;;;;;10.29;92.0127;101266.4;;;;-77
2022/11/09 19:23:12;;;;;;;;;;;;;;;10.02;92.16797;101274.6;;;;-80
2022/11/09 19:33:00;;;;;;;;;;;;;;;9.85;92.27734;101300;;;;-79
2022/11/09 19:33:58;;;;;;;4;0.9;;;;;;;;;;;;;-79
2022/11/09 19:41:35;;;;;;;;;;;;;;;9.73;92.54688;101317.4;;;;-80
2022/11/09 19:46:30;;;;;;;;;;;;;;;9.66;92.50977;101317.9;;;;-81
2022/11/09 19:51:35;;;;;;;;;;;;;;;;;;;;;
2022/11/09 19:56:36;;;;;;;;;;;;;;;9.58;92.63574;101329.9;;;;-80
2022/11/09 20:03:50;;;;;;;6.2;1.3;;;;;;;;;;;;;-80
2022/11/09 20:04:53;;;;;;;;;;;;;;;;;;;;;
2022/11/09 20:14:58;;;;;;;;;;;;;;;9.51;92.63086;101362.9;;;;-75
2022/11/09 20:19:51;;;;;;;;;;;;;;;9.47;92.76563;101369.2;;;;-75
2022/11/09 20:24:49;;;;;;;;;;;;;;;9.44;92.81348;101371.8;;;;-75
2022/11/09 20:29:35;;;;;;;;;;;;;;;9.39;93.03418;101382.2;;;;-74
2022/11/09 20:34:02;;;;;;;6.1;1.1;;;;;;;;;;;;;-76
2022/11/09 20:34:45;;;;;;;;;;;;;;;9.42;93.01855;101385.9;;;;-76
2022/11/09 20:39:39;;;;;;;;;;;;;;;9.39;93.0459;101395.4;;;;-76
2022/11/09 20:46:31;;;;;;;;;;;;;;;9.45;92.90723;101402;;;;-78
2022/11/09 21:03:46;;;;;;;5.1;1.2;;;;;;;;;;;;;-78
2022/11/09 21:05:47;;;;;;;;;;;;;;;9.38;93.15332;101417;;;;-78
2022/11/09 21:10:54;;;;;;;;;;;;;;;9.37;93.20508;101426.5;;;;-78
2022/11/09 21:15:48;;;;;;;;;;;;;;;9.36;93.12793;101433.6;;;;-79
2022/11/09 21:20:51;;;;;;;;;;;;;;;9.38;93.13184;101433.7;;;;-80
2022/11/09 21:30:48;;;;;;;;;;;;;;;9.34;93.08887;101448.9;;;;-79
2022/11/09 21:33:56;;;;;;;5.9;1.1;;;;;;;;;;;;;-78
2022/11/09 21:35:52;;;;;;;;;;;;;;;9.3;93.12695;101455.8;;;;-79
2022/11/09 21:41:36;;;;;;;;;;;;;;;9.29;92.85059;101464.7;;;;-79
2022/11/09 21:45:58;;;;;;;;;;;;;;;9.28;93.14551;101469.3;;;;-78
2022/11/09 21:50:53;;;;;;;;;;;;;;;9.25;93.13574;101477.6;;;;-80
2022/11/09 21:56:05;;;;;;;;;;;;;;;9.23;93.29785;101485.4;;;;-80
2022/11/09 22:00:49;;;;;;;;;;;;;;;9.16;93.2168;101498.4;;;;-79
2022/11/09 22:03:54;;;;;;;5.4;1;;;;;;;;;;;;;-79
2022/11/09 22:05:55;;;;;;;;;;;;;;;9.12;93.20898;101496.2;;;;-79
2022/11/09 22:10:50;;;;;;;;;;;;;;;9.09;93.25586;101500.6;;;;-78
2022/11/09 22:21:04;;;;;;;;;;;;;;;9;93.31348;101511.7;;;;-78
2022/11/09 22:26:10;;;;;;;;;;;;;;;8.96;93.25098;101517.2;;;;-78
2022/11/09 22:31:10;;;;;;;;;;;;;;;;;;;;;
2022/11/09 22:33:52;;;;;;;4.3;1.2;;;;;;;;;;;;;-79
2022/11/09 22:36:06;;;;;;;;;;;;;;;8.89;93.30176;101526.1;;;;-78
2022/11/09 22:40:52;;;;;;;;;;;;;;;8.85;93.5459;101533.4;;;;-79
2022/11/09 22:46:08;;;;;;;;;;;;;;;8.91;93.41699;101539.3;;;;-78
2022/11/09 22:50:21;;;;;;;;;;;;;;;8.75;93.4502;101556.3;;;;-79
2022/11/09 22:55:25;;;;;;;;;;;;;;;8.75;93.71973;101556.9;;;;-78
2022/11/09 23:00:22;;;;;;;;;;;;;;;8.69;93.60938;101557.7;;;;-78
2022/11/09 23:03:51;;;;;;;5.3;1.1;;;;;;;;;;;;;-78
2022/11/09 23:05:33;;;;;;;;;;;;;;;8.68;93.5332;101562.9;;;;-79
2022/11/09 23:10:24;;;;;;;;;;;;;;;8.64;93.34766;101565.9;;;;-80
2022/11/09 23:15:28;;;;;;;;;;;;;;;8.64;94.08301;101568.3;;;;-79
2022/11/09 23:20:22;;;;;;;;;;;;;;;8.59;93.29395;101583.7;;;;-79
2022/11/09 23:30:21;;;;;;;;;;;;;;;8.59;93.31543;101597.5;;;;-79
2022/11/09 23:33:53;;;;;;;4.6;1.4;;;;;;;;;;;;;-80
2022/11/09 23:35:27;;;;;;;;;;;;;;;8.59;93.36914;101598.5;;;;-79
2022/11/09 23:40:22;;;;;;;;;;;;;;;8.64;93.55664;101593.6;;;;-79
2022/11/09 23:45:46;;;;;;;;;;;;;;;8.67;93.51855;101585.2;;;;-79
2022/11/09 23:55:25;;;;;;;;;;;;;;;8.71;93.57227;101604.4;;;;-79
